createdAt,value
2023-03-05T00:01:30.640Z,101623.22
2023-03-05T00:04:32.261Z,101618.00
2023-03-05T00:07:33.920Z,101612.81
2023-03-05T00:10:35.484Z,101603.28
2023-03-05T00:13:37.784Z,101603.31
2023-03-05T00:16:40.305Z,101601.66
2023-03-05T00:19:41.850Z,101599.94
2023-03-05T00:22:43.761Z,101597.31
2023-03-05T00:25:46.669Z,101594.72
2023-03-05T00:28:50.239Z,101581.69
2023-03-05T00:31:52.373Z,101580.88
2023-03-05T00:34:53.940Z,101569.50
2023-03-05T00:37:55.931Z,101574.84
2023-03-05T00:40:57.516Z,101569.63
2023-03-05T00:43:59.365Z,101560.88
2023-03-05T00:47:00.939Z,101556.56
2023-03-05T00:50:03.685Z,101552.22
2023-03-05T00:53:05.289Z,101554.03
2023-03-05T00:56:07.355Z,101550.56
2023-03-05T00:59:08.941Z,101555.00
2023-03-05T01:02:10.892Z,101548.00
2023-03-05T01:05:14.651Z,101555.88
2023-03-05T01:08:16.939Z,101555.00
2023-03-05T01:11:18.648Z,101543.63
2023-03-05T01:14:21.140Z,101534.88
2023-03-05T01:17:22.724Z,101536.66
2023-03-05T01:20:24.371Z,101534.03
2023-03-05T01:23:26.217Z,101523.63
2023-03-05T01:26:28.074Z,101523.63
2023-03-05T01:29:29.698Z,101515.81
2023-03-05T01:32:31.335Z,101512.34
2023-03-05T01:35:32.991Z,101510.66
2023-03-05T01:38:34.623Z,101513.34
2023-03-05T01:41:36.267Z,101509.00
2023-03-05T01:44:37.926Z,101505.50
2023-03-05T01:47:40.082Z,101495.88
2023-03-05T01:50:41.697Z,101489.84
2023-03-05T01:53:43.385Z,101488.09
2023-03-05T01:56:47.049Z,101482.03
2023-03-05T01:59:53.467Z,101481.16
2023-03-05T02:02:57.284Z,101482.06
2023-03-05T02:05:59.066Z,101474.19
2023-03-05T02:09:00.927Z,101468.13
2023-03-05T02:12:02.566Z,101469.00
2023-03-05T02:15:04.529Z,101468.16
2023-03-05T02:18:08.509Z,101461.16
2023-03-05T02:21:10.790Z,101456.78
2023-03-05T02:24:36.872Z,101455.06
2023-03-05T02:27:40.761Z,101455.13
2023-03-05T02:30:42.623Z,101444.66
2023-03-05T02:33:45.285Z,101446.44
2023-03-05T02:36:46.966Z,101439.44
2023-03-05T02:39:48.571Z,101436.81
2023-03-05T02:42:50.210Z,101438.56
2023-03-05T02:45:51.746Z,101430.75
2023-03-05T02:48:53.340Z,101433.38
2023-03-05T02:51:54.890Z,101429.88
2023-03-05T02:54:56.434Z,101425.50
2023-03-05T02:57:58.080Z,101427.25
2023-03-05T03:00:59.713Z,101421.94
2023-03-05T03:04:01.340Z,101421.03
2023-03-05T03:07:03.009Z,101419.22
2023-03-05T03:10:06.097Z,101410.44
2023-03-05T03:13:07.733Z,101401.72
2023-03-05T03:16:12.722Z,101399.97
2023-03-05T03:19:15.129Z,101393.84
2023-03-05T03:22:16.879Z,101391.22
2023-03-05T03:25:21.604Z,101395.59
2023-03-05T03:28:23.179Z,101380.72
2023-03-05T03:31:24.795Z,101379.03
2023-03-05T03:34:26.434Z,101373.78
2023-03-05T03:37:28.201Z,101379.97
2023-03-05T03:40:30.034Z,101365.13
2023-03-05T03:43:31.625Z,101366.94
2023-03-05T03:46:33.511Z,101365.25
2023-03-05T03:49:35.093Z,101360.88
2023-03-05T03:52:36.752Z,101354.81
2023-03-05T03:55:38.355Z,101353.09
2023-03-05T03:58:39.981Z,101353.97
2023-03-05T04:01:41.614Z,101353.09
2023-03-05T04:04:43.171Z,101347.84
2023-03-05T04:07:45.419Z,101340.91
2023-03-05T04:10:46.970Z,101340.03
2023-03-05T04:13:48.981Z,101344.41
2023-03-05T04:16:50.599Z,101333.91
2023-03-05T04:19:52.124Z,101333.91
2023-03-05T04:22:53.715Z,101335.66
2023-03-05T04:25:55.271Z,101335.66
2023-03-05T04:28:56.797Z,101321.69
2023-03-05T04:31:58.369Z,101320.78
2023-03-05T04:34:59.985Z,101319.91
2023-03-05T04:38:01.569Z,101314.66
2023-03-05T04:41:03.130Z,101318.13
2023-03-05T04:44:04.887Z,101326.84
2023-03-05T04:47:06.562Z,101311.94
2023-03-05T04:50:09.044Z,101312.00
2023-03-05T04:53:10.656Z,101304.13
2023-03-05T04:56:12.220Z,101303.25
2023-03-05T04:59:13.773Z,101292.75
2023-03-05T05:02:15.414Z,101288.34
2023-03-05T05:05:20.602Z,101290.13
2023-03-05T05:08:22.704Z,101288.44
2023-03-05T05:11:24.313Z,101284.94
2023-03-05T05:14:26.089Z,101291.06
2023-03-05T05:17:30.935Z,101289.38
2023-03-05T05:20:32.450Z,101290.31
2023-03-05T05:23:33.990Z,101295.59
2023-03-05T05:26:35.589Z,101286.91
2023-03-05T05:29:37.132Z,101279.03
2023-03-05T05:32:38.782Z,101282.50
2023-03-05T05:35:40.405Z,101281.66
2023-03-05T05:38:42.567Z,101286.09
2023-03-05T05:41:44.368Z,101287.00
2023-03-05T05:44:47.623Z,101291.31
2023-03-05T05:47:49.160Z,101297.44
2023-03-05T05:50:50.722Z,101306.19
2023-03-05T05:53:52.329Z,101298.31
2023-03-05T05:56:54.173Z,101291.47
2023-03-05T05:59:56.029Z,101284.53
2023-03-05T06:02:57.645Z,101288.09
2023-03-05T06:05:59.267Z,101284.59
2023-03-05T06:09:01.541Z,101280.22
2023-03-05T06:12:03.678Z,101284.59
2023-03-05T06:15:06.521Z,101287.31
2023-03-05T06:18:08.173Z,101285.53
2023-03-05T06:21:13.182Z,101282.94
2023-03-05T06:24:14.819Z,101289.94
2023-03-05T06:27:16.420Z,101288.19
2023-03-05T06:30:18.087Z,101290.78
2023-03-05T06:33:20.545Z,101295.19
2023-03-05T06:36:24.627Z,101292.56
2023-03-05T06:39:26.178Z,101299.50
2023-03-05T06:42:27.693Z,101298.63
2023-03-05T06:45:29.347Z,101289.88
2023-03-05T06:48:31.162Z,101289.84
2023-03-05T06:51:35.624Z,101298.63
2023-03-05T06:54:37.154Z,101300.41
2023-03-05T06:57:38.731Z,101297.81
2023-03-05T07:00:40.296Z,101294.31
2023-03-05T07:03:42.795Z,101295.22
2023-03-05T07:06:44.693Z,101290.00
2023-03-05T07:09:48.176Z,101288.25
2023-03-05T07:12:49.723Z,101283.00
2023-03-05T07:15:51.432Z,101279.50
2023-03-05T07:18:54.165Z,101287.31
2023-03-05T07:21:55.728Z,101285.56
2023-03-05T07:24:57.239Z,101276.78
2023-03-05T07:27:58.822Z,101270.59
2023-03-05T07:31:03.555Z,101277.59
2023-03-05T07:34:06.543Z,101276.47
2023-03-05T07:37:08.206Z,101266.50
2023-03-05T07:40:10.442Z,101262.91
2023-03-05T07:43:12.001Z,101270.84
2023-03-05T07:46:18.001Z,101263.03
2023-03-05T07:49:19.565Z,101276.28
2023-03-05T07:52:21.084Z,101264.97
2023-03-05T07:55:22.651Z,101260.63
2023-03-05T07:58:24.321Z,101257.09
2023-03-05T08:01:25.920Z,101254.34
2023-03-05T08:04:27.663Z,101250.84
2023-03-05T08:07:29.317Z,101250.78
2023-03-05T08:10:30.881Z,101253.41
2023-03-05T08:13:32.530Z,101249.03
2023-03-05T08:16:34.483Z,101248.13
2023-03-05T08:19:36.043Z,101247.19
2023-03-05T08:22:38.530Z,101241.03
2023-03-05T08:25:40.118Z,101247.06
2023-03-05T08:28:41.729Z,101246.06
2023-03-05T08:31:46.209Z,101234.56
2023-03-05T08:34:47.981Z,101234.34
2023-03-05T08:37:49.910Z,101235.97
2023-03-05T08:40:51.448Z,101231.38
2023-03-05T08:43:53.071Z,101232.94
2023-03-05T08:46:54.664Z,101223.91
2023-03-05T08:49:57.641Z,101228.06
2023-03-05T08:53:00.225Z,101230.53
2023-03-05T08:56:01.826Z,101226.97
2023-03-05T08:59:04.398Z,101221.66
2023-03-05T09:02:06.012Z,101224.19
2023-03-05T09:05:08.183Z,101221.56
2023-03-05T09:08:10.010Z,101215.44
2023-03-05T09:11:13.217Z,101216.31
2023-03-05T09:14:14.812Z,101219.75
2023-03-05T09:17:16.420Z,101219.69
2023-03-05T09:20:18.024Z,101212.53
2023-03-05T09:23:19.956Z,101214.06
2023-03-05T09:26:21.589Z,101204.94
2023-03-05T09:29:23.125Z,101193.91
2023-03-05T09:32:24.786Z,101198.94
2023-03-05T09:35:28.143Z,101196.16
2023-03-05T09:38:29.838Z,101196.03
2023-03-05T09:41:43.580Z,101190.69
2023-03-05T09:44:51.222Z,101187.97
2023-03-05T09:48:24.183Z,101176.41
2023-03-05T09:51:30.206Z,101173.63
2023-03-05T09:54:38.254Z,101178.72
2023-03-05T09:57:44.648Z,101183.84
2023-03-05T10:00:50.329Z,101188.13
2023-03-05T10:04:04.187Z,101185.50
2023-03-05T10:07:15.538Z,101195.16
2023-03-05T10:10:25.920Z,101187.31
2023-03-05T10:13:36.807Z,101185.50
2023-03-05T10:17:16.524Z,101187.09
2023-03-05T10:20:43.844Z,101184.16
2023-03-05T10:24:05.194Z,101177.66
2023-03-05T10:27:19.273Z,101179.16
2023-03-05T10:30:46.080Z,101174.63
2023-03-05T10:34:21.358Z,101161.19
2023-03-05T10:37:37.578Z,101161.72
2023-03-05T10:40:44.797Z,101150.94
2023-03-05T10:43:53.269Z,101152.44
2023-03-05T10:46:58.263Z,101148.72
2023-03-05T10:50:00.110Z,101148.56
2023-03-05T10:53:14.474Z,101150.16
2023-03-05T10:56:19.625Z,101136.06
2023-03-05T10:59:21.228Z,101143.97
2023-03-05T11:02:23.862Z,101135.22
2023-03-05T11:05:47.172Z,101134.31
2023-03-05T11:08:48.722Z,101132.47
2023-03-05T11:12:02.268Z,101132.28
2023-03-05T11:15:09.790Z,101125.09
2023-03-05T11:18:21.320Z,101118.56
2023-03-05T11:21:29.212Z,101105.94
2023-03-05T11:24:30.788Z,101112.88
2023-03-05T11:27:36.891Z,101103.06
2023-03-05T11:30:39.630Z,101092.91
2023-03-05T11:34:00.968Z,101091.94
2023-03-05T11:37:06.384Z,101078.59
2023-03-05T11:40:08.322Z,101082.94
2023-03-05T11:43:15.639Z,101079.59
2023-03-05T11:46:18.932Z,101082.16
2023-03-05T11:49:24.588Z,101071.78
2023-03-05T11:52:34.279Z,101073.56
2023-03-05T11:55:49.123Z,101067.13
2023-03-05T11:59:10.901Z,101082.78
2023-03-05T12:02:20.457Z,101062.41
2023-03-05T12:05:22.686Z,101054.88
2023-03-05T12:08:33.441Z,101044.34
2023-03-05T12:11:36.702Z,101040.06
2023-03-05T12:14:50.599Z,101029.38
2023-03-05T12:18:10.939Z,101031.81
2023-03-05T12:21:27.760Z,101022.97
2023-03-05T12:24:29.258Z,101004.50
2023-03-05T12:27:36.909Z,101011.50
2023-03-05T12:30:38.399Z,101006.22
2023-03-05T12:33:43.562Z,101008.00
2023-03-05T12:36:45.095Z,100992.19
2023-03-05T12:39:58.138Z,100986.91
2023-03-05T12:43:31.077Z,100990.31
2023-03-05T12:46:33.179Z,100993.94
2023-03-05T12:49:39.715Z,100995.00
2023-03-05T12:52:45.721Z,100999.66
2023-03-05T12:55:58.350Z,100992.88
2023-03-05T12:59:04.287Z,100986.78
2023-03-05T13:02:19.990Z,100976.19
2023-03-05T13:05:27.160Z,100970.63
2023-03-05T13:08:31.728Z,100955.50
2023-03-05T13:11:38.962Z,100954.44
2023-03-05T13:14:45.766Z,100953.53
2023-03-05T13:18:03.325Z,100946.53
2023-03-05T13:21:14.589Z,100949.16
2023-03-05T13:24:18.206Z,100947.31
2023-03-05T13:27:31.765Z,100941.13
2023-03-05T13:30:34.703Z,100936.81
2023-03-05T13:33:37.531Z,100930.81
2023-03-05T13:36:40.271Z,100923.88
2023-03-05T13:39:48.545Z,100919.59
2023-03-05T13:42:50.672Z,100918.88
2023-03-05T13:45:56.608Z,100913.72
2023-03-05T13:49:18.032Z,100908.53
2023-03-05T13:52:45.800Z,100915.50
2023-03-05T13:55:49.375Z,100912.03
2023-03-05T13:58:56.536Z,100912.28
2023-03-05T14:02:19.801Z,100908.31
2023-03-05T14:05:22.110Z,100913.94
2023-03-05T14:08:26.556Z,100903.50
2023-03-05T14:11:28.236Z,100889.50
2023-03-05T14:14:34.274Z,100887.66
2023-03-05T14:17:41.874Z,100888.53
2023-03-05T14:21:09.711Z,100879.69
2023-03-05T14:24:22.986Z,100885.97
2023-03-05T14:27:24.714Z,100880.88
2023-03-05T14:30:26.531Z,100868.84
2023-03-05T14:33:32.670Z,100865.63
2023-03-05T14:36:34.901Z,100856.94
2023-03-05T14:39:46.700Z,100858.69
2023-03-05T14:43:07.091Z,100849.91
2023-03-05T14:46:11.621Z,100845.63
2023-03-05T14:49:13.871Z,100838.72
2023-03-05T14:52:18.416Z,100839.66
2023-03-05T14:55:24.278Z,100830.09
2023-03-05T14:58:29.747Z,100822.22
2023-03-05T15:01:31.399Z,100826.72
2023-03-05T15:04:33.028Z,100817.03
2023-03-05T15:07:34.635Z,100809.09
2023-03-05T15:10:36.253Z,100806.47
2023-03-05T15:13:37.840Z,100810.88
2023-03-05T15:16:44.159Z,100806.47
2023-03-05T15:19:47.449Z,100798.56
2023-03-05T15:22:49.183Z,100797.69
2023-03-05T15:25:51.111Z,100793.28
2023-03-05T15:28:52.689Z,100785.38
2023-03-05T15:31:54.374Z,100781.88
2023-03-05T15:34:56.219Z,100776.66
2023-03-05T15:38:00.940Z,100779.31
2023-03-05T15:41:02.584Z,100774.91
2023-03-05T15:44:04.243Z,100755.69
2023-03-05T15:47:06.606Z,100767.16
2023-03-05T15:50:10.210Z,100752.28
2023-03-05T15:53:16.194Z,100761.19
2023-03-05T15:56:19.133Z,100753.34
2023-03-05T15:59:20.932Z,100751.63
2023-03-05T16:02:24.709Z,100740.28
2023-03-05T16:05:26.428Z,100740.41
2023-03-05T16:08:28.527Z,100733.44
2023-03-05T16:11:33.355Z,100729.09
2023-03-05T16:14:34.965Z,100731.84
2023-03-05T16:17:37.481Z,100727.56
2023-03-05T16:20:39.153Z,100719.75
2023-03-05T16:23:41.238Z,100728.50
2023-03-05T16:26:43.591Z,100722.38
2023-03-05T16:29:46.097Z,100720.59
2023-03-05T16:32:47.768Z,100717.19
2023-03-05T16:35:49.493Z,100711.94
2023-03-05T16:38:54.116Z,100712.09
2023-03-05T16:41:55.875Z,100700.91
2023-03-05T16:44:58.684Z,100706.31
2023-03-05T16:48:00.295Z,100692.34
2023-03-05T16:51:01.921Z,100701.22
2023-03-05T16:54:03.867Z,100691.69
2023-03-05T16:57:05.728Z,100686.41
2023-03-05T17:00:10.800Z,100693.31
2023-03-05T17:03:12.399Z,100687.84
2023-03-05T17:06:23.780Z,100681.78
2023-03-05T17:09:25.400Z,100683.63
2023-03-05T17:12:26.985Z,100682.91
2023-03-05T17:15:28.575Z,100679.50
2023-03-05T17:18:30.517Z,100676.91
2023-03-05T17:21:32.276Z,100676.09
2023-03-05T17:24:33.898Z,100682.44
2023-03-05T17:27:37.195Z,100676.56
2023-03-05T17:30:39.320Z,100673.22
2023-03-05T17:33:42.076Z,100673.34
2023-03-05T17:36:45.321Z,100662.00
2023-03-05T17:39:46.899Z,100662.06
2023-03-05T17:42:48.985Z,100664.78
2023-03-05T17:45:50.625Z,100664.09
2023-03-05T17:48:52.298Z,100649.28
2023-03-05T17:51:54.018Z,100658.09
2023-03-05T17:54:56.109Z,100654.63
2023-03-05T17:57:58.784Z,100657.25
2023-03-05T18:01:00.474Z,100659.03
2023-03-05T18:04:02.212Z,100647.72
2023-03-05T18:07:04.089Z,100653.03
2023-03-05T18:10:08.046Z,100648.69
2023-03-05T18:13:09.683Z,100638.28
2023-03-05T18:16:13.982Z,100641.91
2023-03-05T18:19:15.688Z,100636.63
2023-03-05T18:22:17.400Z,100637.53
2023-03-05T18:25:19.116Z,100631.44
2023-03-05T18:28:20.739Z,100628.00
2023-03-05T18:31:22.431Z,100625.50
2023-03-05T18:34:25.721Z,100625.56
2023-03-05T18:37:27.339Z,100616.00
2023-03-05T18:40:32.784Z,100613.44
2023-03-05T18:43:35.143Z,100600.31
2023-03-05T18:46:37.177Z,100609.16
2023-03-05T18:49:38.791Z,100596.03
2023-03-05T18:52:43.802Z,100595.06
2023-03-05T18:55:45.603Z,100592.38
2023-03-05T18:58:47.735Z,100580.13
2023-03-05T19:01:49.417Z,100575.84
2023-03-05T19:04:51.015Z,100574.19
2023-03-05T19:07:52.842Z,100571.69
2023-03-05T19:10:54.483Z,100567.41
2023-03-05T19:13:57.050Z,100571.75
2023-03-05T19:17:00.638Z,100564.91
2023-03-05T19:20:08.623Z,100564.09
2023-03-05T19:23:10.240Z,100559.00
2023-03-05T19:26:12.426Z,100567.78
2023-03-05T19:29:14.548Z,100561.66
2023-03-05T19:32:18.134Z,100553.84
2023-03-05T19:35:20.027Z,100545.16
2023-03-05T19:38:21.735Z,100545.22
2023-03-05T19:41:23.356Z,100537.47
2023-03-05T19:44:25.116Z,100530.47
2023-03-05T19:47:26.719Z,100527.94
2023-03-05T19:50:28.616Z,100534.88
2023-03-05T19:53:30.429Z,100522.66
2023-03-05T19:56:32.111Z,100518.31
2023-03-05T19:59:33.698Z,100513.94
2023-03-05T20:02:35.304Z,100507.84
2023-03-05T20:05:37.016Z,100502.50
2023-03-05T20:08:39.032Z,100501.66
2023-03-05T20:11:41.037Z,100500.00
2023-03-05T20:14:42.650Z,100493.09
2023-03-05T20:17:45.794Z,100490.53
2023-03-05T20:20:53.092Z,100491.44
2023-03-05T20:23:57.211Z,100488.03
2023-03-05T20:27:00.047Z,100488.09
2023-03-05T20:30:01.713Z,100485.47
2023-03-05T20:33:04.204Z,100483.75
2023-03-05T20:36:06.233Z,100476.66
2023-03-05T20:39:08.231Z,100470.41
2023-03-05T20:42:09.885Z,100466.88
2023-03-05T20:45:12.021Z,100461.47
2023-03-05T20:48:13.877Z,100460.66
2023-03-05T20:51:27.448Z,100465.13
2023-03-05T20:54:29.279Z,100466.97
2023-03-05T20:57:31.627Z,100487.03
2023-03-05T21:00:33.699Z,100479.16
2023-03-05T21:03:37.283Z,100483.63
2023-03-05T21:06:39.111Z,100490.78
2023-03-05T21:09:40.692Z,100477.13
2023-03-05T21:12:47.235Z,100475.72
2023-03-05T21:15:48.909Z,100467.25
2023-03-05T21:18:51.333Z,100466.59
2023-03-05T21:21:52.957Z,100465.06
2023-03-05T21:25:23.139Z,100469.81
2023-03-05T21:28:25.020Z,100464.00
2023-03-05T21:31:26.739Z,100467.66
2023-03-05T21:34:28.413Z,100467.03
2023-03-05T21:37:30.026Z,100463.91
2023-03-05T21:40:33.409Z,100467.78
2023-03-05T21:43:35.022Z,100464.63
2023-03-05T21:46:37.582Z,100459.69
2023-03-05T21:49:39.259Z,100462.69
2023-03-05T21:52:41.711Z,100459.47
2023-03-05T21:56:23.862Z,100456.16
2023-03-05T21:59:25.417Z,100459.81
2023-03-05T22:02:27.038Z,100465.09
2023-03-05T22:05:28.667Z,100463.34
2023-03-05T22:08:30.256Z,100444.00
2023-03-05T22:11:31.916Z,100443.09
2023-03-05T22:14:33.447Z,100446.53
2023-03-05T22:17:35.240Z,100440.41
2023-03-05T22:20:37.175Z,100448.28
2023-03-05T22:23:38.756Z,100442.13
2023-03-05T22:26:41.736Z,100444.69
2023-03-05T22:29:43.442Z,100436.81
2023-03-05T22:32:45.067Z,100445.44
2023-03-05T22:35:47.152Z,100441.03
2023-03-05T22:38:48.894Z,100436.69
2023-03-05T22:41:50.487Z,100444.69
2023-03-05T22:44:58.508Z,100437.84
2023-03-05T22:48:00.167Z,100439.53
2023-03-05T22:51:01.722Z,100438.66
2023-03-05T22:54:03.568Z,100429.78
2023-03-05T22:57:05.697Z,100427.00
2023-03-05T23:00:13.486Z,100423.38
2023-03-05T23:03:16.042Z,100426.78
2023-03-05T23:06:17.654Z,100433.78
2023-03-05T23:09:19.267Z,100423.22
2023-03-05T23:12:21.705Z,100429.25
2023-03-05T23:15:32.509Z,100428.44
2023-03-05T23:18:34.178Z,100426.78
2023-03-05T23:21:35.772Z,100436.41
2023-03-05T23:24:37.933Z,100440.88
2023-03-05T23:27:39.707Z,100438.41
2023-03-05T23:30:43.127Z,100444.63
2023-03-05T23:33:44.887Z,100431.63
2023-03-05T23:36:46.418Z,100434.28
2023-03-05T23:39:48.257Z,100428.31
2023-03-05T23:42:50.643Z,100424.88
2023-03-05T23:45:56.208Z,100422.38
2023-03-05T23:48:57.842Z,100421.53
2023-03-05T23:51:59.432Z,100419.88
2023-03-05T23:55:01.099Z,100416.44
2023-03-05T23:58:03.340Z,100407.78
